sensor_id;sensor_type;location;lat;lon;timestamp;temperature;humidity
13436;DHT22;6790;49.520;8.504;2022-10-31T00:01:36;11.10;99.90
13436;DHT22;6790;49.520;8.504;2022-10-31T00:04:03;11.00;99.90
13436;DHT22;6790;49.520;8.504;2022-10-31T00:06:29;11.00;99.90
13436;DHT22;6790;49.520;8.504;2022-10-31T00:09:00;11.00;99.90
13436;DHT22;6790;49.520;8.504;2022-10-31T00:11:27;11.00;99.90
13436;DHT22;6790;49.520;8.504;2022-10-31T00:13:53;10.90;99.90
13436;DHT22;6790;49.520;8.504;2022-10-31T00:16:21;10.90;99.90
13436;DHT22;6790;49.520;8.504;2022-10-31T00:18:48;10.90;99.90
13436;DHT22;6790;49.520;8.504;2022-10-31T00:21:15;10.80;99.90
13436;DHT22;6790;49.520;8.504;2022-10-31T00:23:40;10.80;99.90
13436;DHT22;6790;49.520;8.504;2022-10-31T00:26:06;10.80;99.90
13436;DHT22;6790;49.520;8.504;2022-10-31T00:28:32;10.80;99.90
13436;DHT22;6790;49.520;8.504;2022-10-31T00:31:03;10.80;99.90
13436;DHT22;6790;49.520;8.504;2022-10-31T00:33:32;10.80;99.90
13436;DHT22;6790;49.520;8.504;2022-10-31T00:35:59;10.80;99.90
13436;DHT22;6790;49.520;8.504;2022-10-31T00:38:24;10.70;99.90
13436;DHT22;6790;49.520;8.504;2022-10-31T00:40:50;10.70;99.90
13436;DHT22;6790;49.520;8.504;2022-10-31T00:43:16;10.60;99.90
13436;DHT22;6790;49.520;8.504;2022-10-31T00:45:42;10.60;99.90
13436;DHT22;6790;49.520;8.504;2022-10-31T00:48:08;10.60;99.90
13436;DHT22;6790;49.520;8.504;2022-10-31T00:50:34;10.70;99.90
13436;DHT22;6790;49.520;8.504;2022-10-31T00:53:00;10.60;99.90
13436;DHT22;6790;49.520;8.504;2022-10-31T00:55:26;10.70;99.90
13436;DHT22;6790;49.520;8.504;2022-10-31T00:57:51;10.70;99.90
13436;DHT22;6790;49.520;8.504;2022-10-31T01:00:17;10.60;99.90
13436;DHT22;6790;49.520;8.504;2022-10-31T01:02:43;10.60;99.90
13436;DHT22;6790;49.520;8.504;2022-10-31T01:05:08;10.60;99.90
13436;DHT22;6790;49.520;8.504;2022-10-31T01:07:38;10.60;99.90
13436;DHT22;6790;49.520;8.504;2022-10-31T01:10:05;10.70;99.90
13436;DHT22;6790;49.520;8.504;2022-10-31T01:12:39;10.70;99.90
13436;DHT22;6790;49.520;8.504;2022-10-31T01:15:07;10.70;99.90
13436;DHT22;6790;49.520;8.504;2022-10-31T01:17:33;10.70;99.90
13436;DHT22;6790;49.520;8.504;2022-10-31T01:19:59;10.60;99.90
13436;DHT22;6790;49.520;8.504;2022-10-31T01:22:25;10.60;99.90
13436;DHT22;6790;49.520;8.504;2022-10-31T01:24:50;10.60;99.90
13436;DHT22;6790;49.520;8.504;2022-10-31T01:27:16;10.70;99.90
13436;DHT22;6790;49.520;8.504;2022-10-31T01:29:42;10.70;99.90
13436;DHT22;6790;49.520;8.504;2022-10-31T01:32:07;10.70;99.90
13436;DHT22;6790;49.520;8.504;2022-10-31T01:34:33;10.70;99.90
13436;DHT22;6790;49.520;8.504;2022-10-31T01:37:00;10.60;99.90
13436;DHT22;6790;49.520;8.504;2022-10-31T01:39:26;10.60;99.90
13436;DHT22;6790;49.520;8.504;2022-10-31T01:41:53;10.50;99.90
13436;DHT22;6790;49.520;8.504;2022-10-31T01:52:28;10.60;99.90
13436;DHT22;6790;49.520;8.504;2022-10-31T01:55:32;10.50;99.90
13436;DHT22;6790;49.520;8.504;2022-10-31T01:58:06;10.60;99.90
13436;DHT22;6790;49.520;8.504;2022-10-31T02:00:34;10.60;99.90
13436;DHT22;6790;49.520;8.504;2022-10-31T02:03:00;10.60;99.90
13436;DHT22;6790;49.520;8.504;2022-10-31T02:05:28;10.60;99.90
13436;DHT22;6790;49.520;8.504;2022-10-31T02:08:19;10.60;99.90
13436;DHT22;6790;49.520;8.504;2022-10-31T02:10:49;10.60;99.90
13436;DHT22;6790;49.520;8.504;2022-10-31T02:13:15;10.50;99.90
13436;DHT22;6790;49.520;8.504;2022-10-31T02:15:42;10.50;99.90
13436;DHT22;6790;49.520;8.504;2022-10-31T02:18:09;10.50;99.90
13436;DHT22;6790;49.520;8.504;2022-10-31T02:21:02;10.60;99.90
13436;DHT22;6790;49.520;8.504;2022-10-31T02:27:21;10.50;99.90
13436;DHT22;6790;49.520;8.504;2022-10-31T02:30:23;10.50;99.90
13436;DHT22;6790;49.520;8.504;2022-10-31T02:33:07;10.30;99.90
13436;DHT22;6790;49.520;8.504;2022-10-31T02:39:16;10.30;99.90
13436;DHT22;6790;49.520;8.504;2022-10-31T02:42:02;10.30;99.90
13436;DHT22;6790;49.520;8.504;2022-10-31T02:44:53;10.30;99.90
13436;DHT22;6790;49.520;8.504;2022-10-31T02:47:28;10.30;99.90
13436;DHT22;6790;49.520;8.504;2022-10-31T02:50:02;10.30;99.90
13436;DHT22;6790;49.520;8.504;2022-10-31T02:52:34;10.40;99.90
13436;DHT22;6790;49.520;8.504;2022-10-31T02:58:13;10.30;99.90
13436;DHT22;6790;49.520;8.504;2022-10-31T03:07:15;10.30;99.90
13436;DHT22;6790;49.520;8.504;2022-10-31T03:13:21;10.30;99.90
13436;DHT22;6790;49.520;8.504;2022-10-31T03:24:02;10.20;99.90
13436;DHT22;6790;49.520;8.504;2022-10-31T03:26:28;10.20;99.90
13436;DHT22;6790;49.520;8.504;2022-10-31T03:28:59;10.30;99.90
13436;DHT22;6790;49.520;8.504;2022-10-31T03:31:35;10.30;99.90
13436;DHT22;6790;49.520;8.504;2022-10-31T03:34:02;10.30;99.90
13436;DHT22;6790;49.520;8.504;2022-10-31T03:36:33;10.30;99.90
13436;DHT22;6790;49.520;8.504;2022-10-31T03:39:02;10.30;99.90
13436;DHT22;6790;49.520;8.504;2022-10-31T03:41:32;10.40;99.90
13436;DHT22;6790;49.520;8.504;2022-10-31T03:44:06;10.40;99.90
13436;DHT22;6790;49.520;8.504;2022-10-31T03:46:34;10.30;99.90
13436;DHT22;6790;49.520;8.504;2022-10-31T03:49:00;10.30;99.90
13436;DHT22;6790;49.520;8.504;2022-10-31T03:54:10;10.20;99.90
13436;DHT22;6790;49.520;8.504;2022-10-31T03:59:45;10.30;99.90
13436;DHT22;6790;49.520;8.504;2022-10-31T04:02:18;10.20;99.90
13436;DHT22;6790;49.520;8.504;2022-10-31T04:04:46;10.30;99.90
13436;DHT22;6790;49.520;8.504;2022-10-31T04:07:15;10.20;99.90
13436;DHT22;6790;49.520;8.504;2022-10-31T04:09:46;10.10;99.90
13436;DHT22;6790;49.520;8.504;2022-10-31T04:12:14;10.10;99.90
13436;DHT22;6790;49.520;8.504;2022-10-31T04:14:43;10.10;99.90
13436;DHT22;6790;49.520;8.504;2022-10-31T04:17:13;10.00;99.90
13436;DHT22;6790;49.520;8.504;2022-10-31T04:19:41;10.00;99.90
13436;DHT22;6790;49.520;8.504;2022-10-31T04:22:07;10.00;99.90
13436;DHT22;6790;49.520;8.504;2022-10-31T04:24:33;10.10;99.90
13436;DHT22;6790;49.520;8.504;2022-10-31T04:26:58;10.10;99.90
13436;DHT22;6790;49.520;8.504;2022-10-31T04:29:24;10.20;99.90
13436;DHT22;6790;49.520;8.504;2022-10-31T04:31:50;10.10;99.90
13436;DHT22;6790;49.520;8.504;2022-10-31T04:34:15;10.10;99.90
13436;DHT22;6790;49.520;8.504;2022-10-31T04:36:41;10.10;99.90
13436;DHT22;6790;49.520;8.504;2022-10-31T04:39:07;10.10;99.90
13436;DHT22;6790;49.520;8.504;2022-10-31T04:41:32;10.10;99.90
13436;DHT22;6790;49.520;8.504;2022-10-31T04:43:58;10.00;99.90
13436;DHT22;6790;49.520;8.504;2022-10-31T04:46:23;9.90;99.90
13436;DHT22;6790;49.520;8.504;2022-10-31T04:48:49;9.90;99.90
13436;DHT22;6790;49.520;8.504;2022-10-31T04:51:15;9.90;99.90
13436;DHT22;6790;49.520;8.504;2022-10-31T04:53:40;9.90;99.90
13436;DHT22;6790;49.520;8.504;2022-10-31T04:56:06;10.00;99.90
13436;DHT22;6790;49.520;8.504;2022-10-31T04:58:32;9.90;99.90
13436;DHT22;6790;49.520;8.504;2022-10-31T05:00:58;9.90;99.90
13436;DHT22;6790;49.520;8.504;2022-10-31T05:03:23;10.00;99.90
13436;DHT22;6790;49.520;8.504;2022-10-31T05:05:49;9.90;99.90
13436;DHT22;6790;49.520;8.504;2022-10-31T05:08:15;9.90;99.90
13436;DHT22;6790;49.520;8.504;2022-10-31T05:10:41;9.80;99.90
13436;DHT22;6790;49.520;8.504;2022-10-31T05:13:07;9.70;99.90
13436;DHT22;6790;49.520;8.504;2022-10-31T05:15:33;9.80;99.90
13436;DHT22;6790;49.520;8.504;2022-10-31T05:17:59;9.80;99.90
13436;DHT22;6790;49.520;8.504;2022-10-31T05:20:27;9.80;99.90
13436;DHT22;6790;49.520;8.504;2022-10-31T05:22:56;9.80;99.90
13436;DHT22;6790;49.520;8.504;2022-10-31T05:25:25;9.80;99.90
13436;DHT22;6790;49.520;8.504;2022-10-31T05:27:53;9.80;99.90
13436;DHT22;6790;49.520;8.504;2022-10-31T05:30:22;9.80;99.90
13436;DHT22;6790;49.520;8.504;2022-10-31T05:32:50;9.80;99.90
13436;DHT22;6790;49.520;8.504;2022-10-31T05:35:25;9.70;99.90
13436;DHT22;6790;49.520;8.504;2022-10-31T05:37:53;9.70;99.90
13436;DHT22;6790;49.520;8.504;2022-10-31T05:40:19;9.70;99.90
13436;DHT22;6790;49.520;8.504;2022-10-31T05:42:46;9.80;99.90
13436;DHT22;6790;49.520;8.504;2022-10-31T05:45:15;9.80;99.90
13436;DHT22;6790;49.520;8.504;2022-10-31T05:47:42;9.90;99.90
13436;DHT22;6790;49.520;8.504;2022-10-31T05:50:09;9.90;99.90
13436;DHT22;6790;49.520;8.504;2022-10-31T05:52:34;9.90;99.90
13436;DHT22;6790;49.520;8.504;2022-10-31T05:55:00;9.90;99.90
13436;DHT22;6790;49.520;8.504;2022-10-31T05:57:26;9.90;99.90
13436;DHT22;6790;49.520;8.504;2022-10-31T05:59:53;9.90;99.90
13436;DHT22;6790;49.520;8.504;2022-10-31T06:02:20;9.80;99.90
13436;DHT22;6790;49.520;8.504;2022-10-31T06:04:46;9.80;99.90
13436;DHT22;6790;49.520;8.504;2022-10-31T06:07:11;9.70;99.90
13436;DHT22;6790;49.520;8.504;2022-10-31T06:09:37;9.80;99.90
13436;DHT22;6790;49.520;8.504;2022-10-31T06:12:03;9.80;99.90
13436;DHT22;6790;49.520;8.504;2022-10-31T06:14:28;9.80;99.90
13436;DHT22;6790;49.520;8.504;2022-10-31T06:16:55;9.70;99.90
13436;DHT22;6790;49.520;8.504;2022-10-31T06:19:21;9.70;99.90
13436;DHT22;6790;49.520;8.504;2022-10-31T06:21:46;9.70;99.90
13436;DHT22;6790;49.520;8.504;2022-10-31T06:24:12;9.80;99.90
13436;DHT22;6790;49.520;8.504;2022-10-31T06:26:38;9.80;99.90
13436;DHT22;6790;49.520;8.504;2022-10-31T06:29:04;9.80;99.90
13436;DHT22;6790;49.520;8.504;2022-10-31T06:31:30;9.80;99.90
13436;DHT22;6790;49.520;8.504;2022-10-31T06:33:55;9.90;99.90
13436;DHT22;6790;49.520;8.504;2022-10-31T06:36:21;10.00;99.90
13436;DHT22;6790;49.520;8.504;2022-10-31T06:38:47;10.10;99.90
13436;DHT22;6790;49.520;8.504;2022-10-31T06:41:13;10.00;99.90
13436;DHT22;6790;49.520;8.504;2022-10-31T06:43:38;10.00;99.90
13436;DHT22;6790;49.520;8.504;2022-10-31T06:46:05;10.10;99.90
13436;DHT22;6790;49.520;8.504;2022-10-31T06:48:31;10.10;99.90
13436;DHT22;6790;49.520;8.504;2022-10-31T06:51:01;10.20;99.90
13436;DHT22;6790;49.520;8.504;2022-10-31T06:53:27;10.20;99.90
13436;DHT22;6790;49.520;8.504;2022-10-31T06:55:56;10.30;99.90
13436;DHT22;6790;49.520;8.504;2022-10-31T06:58:22;10.30;99.90
13436;DHT22;6790;49.520;8.504;2022-10-31T07:00:48;10.30;99.90
13436;DHT22;6790;49.520;8.504;2022-10-31T07:03:15;10.40;99.90
13436;DHT22;6790;49.520;8.504;2022-10-31T07:05:41;10.40;99.90
13436;DHT22;6790;49.520;8.504;2022-10-31T07:08:10;10.50;99.90
13436;DHT22;6790;49.520;8.504;2022-10-31T07:10:38;10.60;99.90
13436;DHT22;6790;49.520;8.504;2022-10-31T07:13:08;10.60;99.90
13436;DHT22;6790;49.520;8.504;2022-10-31T07:15:38;10.70;99.90
13436;DHT22;6790;49.520;8.504;2022-10-31T07:18:06;10.80;99.90
13436;DHT22;6790;49.520;8.504;2022-10-31T07:20:32;10.90;99.90
13436;DHT22;6790;49.520;8.504;2022-10-31T07:22:59;11.00;99.90
13436;DHT22;6790;49.520;8.504;2022-10-31T07:25:25;11.00;99.90
13436;DHT22;6790;49.520;8.504;2022-10-31T07:27:51;11.10;99.90
13436;DHT22;6790;49.520;8.504;2022-10-31T07:30:17;11.10;99.90
13436;DHT22;6790;49.520;8.504;2022-10-31T07:32:46;11.20;99.90
13436;DHT22;6790;49.520;8.504;2022-10-31T07:35:21;11.30;99.90
13436;DHT22;6790;49.520;8.504;2022-10-31T07:37:48;11.30;99.90
13436;DHT22;6790;49.520;8.504;2022-10-31T07:40:14;11.40;99.90
13436;DHT22;6790;49.520;8.504;2022-10-31T07:42:42;11.40;99.90
13436;DHT22;6790;49.520;8.504;2022-10-31T07:45:11;11.50;99.90
13436;DHT22;6790;49.520;8.504;2022-10-31T07:47:51;11.70;99.90
13436;DHT22;6790;49.520;8.504;2022-10-31T07:50:23;11.80;99.90
13436;DHT22;6790;49.520;8.504;2022-10-31T07:53:04;11.90;99.90
13436;DHT22;6790;49.520;8.504;2022-10-31T07:55:32;12.00;99.90
13436;DHT22;6790;49.520;8.504;2022-10-31T07:58:00;12.20;99.90
13436;DHT22;6790;49.520;8.504;2022-10-31T08:00:26;12.40;99.90
13436;DHT22;6790;49.520;8.504;2022-10-31T08:03:04;12.40;99.90
13436;DHT22;6790;49.520;8.504;2022-10-31T08:05:32;12.50;99.90
13436;DHT22;6790;49.520;8.504;2022-10-31T08:07:58;12.60;99.90
13436;DHT22;6790;49.520;8.504;2022-10-31T08:10:25;12.70;99.90
13436;DHT22;6790;49.520;8.504;2022-10-31T08:12:59;12.80;99.90
13436;DHT22;6790;49.520;8.504;2022-10-31T08:15:30;12.90;99.90
13436;DHT22;6790;49.520;8.504;2022-10-31T08:17:56;13.00;99.90
13436;DHT22;6790;49.520;8.504;2022-10-31T08:20:22;13.20;99.90
13436;DHT22;6790;49.520;8.504;2022-10-31T08:22:58;13.30;99.90
13436;DHT22;6790;49.520;8.504;2022-10-31T08:25:26;13.50;99.90
13436;DHT22;6790;49.520;8.504;2022-10-31T08:27:54;13.60;99.90
13436;DHT22;6790;49.520;8.504;2022-10-31T08:30:21;13.80;99.90
13436;DHT22;6790;49.520;8.504;2022-10-31T08:33:00;13.90;99.90
13436;DHT22;6790;49.520;8.504;2022-10-31T08:35:27;14.10;99.90
13436;DHT22;6790;49.520;8.504;2022-10-31T08:37:54;14.20;99.90
13436;DHT22;6790;49.520;8.504;2022-10-31T08:40:21;14.40;99.90
13436;DHT22;6790;49.520;8.504;2022-10-31T08:42:47;14.50;99.90
13436;DHT22;6790;49.520;8.504;2022-10-31T08:45:12;14.60;99.90
13436;DHT22;6790;49.520;8.504;2022-10-31T08:47:38;14.80;99.90
13436;DHT22;6790;49.520;8.504;2022-10-31T08:50:04;14.90;99.90
13436;DHT22;6790;49.520;8.504;2022-10-31T08:52:30;15.00;99.90
13436;DHT22;6790;49.520;8.504;2022-10-31T08:54:55;15.10;99.90
13436;DHT22;6790;49.520;8.504;2022-10-31T08:57:21;15.10;99.90
13436;DHT22;6790;49.520;8.504;2022-10-31T08:59:47;15.20;99.90
13436;DHT22;6790;49.520;8.504;2022-10-31T09:02:12;15.20;99.90
13436;DHT22;6790;49.520;8.504;2022-10-31T09:04:38;15.30;99.90
13436;DHT22;6790;49.520;8.504;2022-10-31T09:07:04;15.30;99.90
13436;DHT22;6790;49.520;8.504;2022-10-31T09:09:29;15.40;99.90
13436;DHT22;6790;49.520;8.504;2022-10-31T09:11:55;15.50;99.90
13436;DHT22;6790;49.520;8.504;2022-10-31T09:14:21;15.60;99.90
13436;DHT22;6790;49.520;8.504;2022-10-31T09:16:46;15.60;99.90
13436;DHT22;6790;49.520;8.504;2022-10-31T09:19:12;15.70;99.90
13436;DHT22;6790;49.520;8.504;2022-10-31T09:21:38;15.80;99.90
13436;DHT22;6790;49.520;8.504;2022-10-31T09:24:04;15.90;99.90
13436;DHT22;6790;49.520;8.504;2022-10-31T09:26:29;16.00;99.90
13436;DHT22;6790;49.520;8.504;2022-10-31T09:28:55;16.00;99.90
13436;DHT22;6790;49.520;8.504;2022-10-31T09:31:22;16.00;99.90
13436;DHT22;6790;49.520;8.504;2022-10-31T09:33:48;16.10;99.90
13436;DHT22;6790;49.520;8.504;2022-10-31T09:36:14;16.10;99.90
13436;DHT22;6790;49.520;8.504;2022-10-31T09:38:40;16.20;99.90
13436;DHT22;6790;49.520;8.504;2022-10-31T09:43:50;16.30;99.90
13436;DHT22;6790;49.520;8.504;2022-10-31T09:46:47;16.40;99.90
13436;DHT22;6790;49.520;8.504;2022-10-31T09:52:29;16.40;99.90
13436;DHT22;6790;49.520;8.504;2022-10-31T09:55:04;16.60;99.90
13436;DHT22;6790;49.520;8.504;2022-10-31T09:57:35;16.60;99.90
13436;DHT22;6790;49.520;8.504;2022-10-31T10:00:04;16.70;99.90
13436;DHT22;6790;49.520;8.504;2022-10-31T10:02:38;16.80;99.90
13436;DHT22;6790;49.520;8.504;2022-10-31T10:05:20;16.80;99.90
13436;DHT22;6790;49.520;8.504;2022-10-31T10:08:11;16.90;99.90
13436;DHT22;6790;49.520;8.504;2022-10-31T10:11:08;16.90;99.90
13436;DHT22;6790;49.520;8.504;2022-10-31T10:14:04;17.00;99.90
13436;DHT22;6790;49.520;8.504;2022-10-31T10:25:22;17.30;99.90
13436;DHT22;6790;49.520;8.504;2022-10-31T10:30:47;17.50;99.90
13436;DHT22;6790;49.520;8.504;2022-10-31T10:33:27;17.70;99.90
13436;DHT22;6790;49.520;8.504;2022-10-31T10:35:59;17.70;99.90
13436;DHT22;6790;49.520;8.504;2022-10-31T10:38:53;17.70;99.90
13436;DHT22;6790;49.520;8.504;2022-10-31T10:41:24;17.70;99.90
13436;DHT22;6790;49.520;8.504;2022-10-31T10:43:57;17.80;99.90
13436;DHT22;6790;49.520;8.504;2022-10-31T10:46:43;17.80;99.90
13436;DHT22;6790;49.520;8.504;2022-10-31T10:49:50;17.80;99.90
13436;DHT22;6790;49.520;8.504;2022-10-31T10:52:30;17.80;99.90
13436;DHT22;6790;49.520;8.504;2022-10-31T10:55:06;17.90;99.90
13436;DHT22;6790;49.520;8.504;2022-10-31T10:57:50;17.90;99.90
13436;DHT22;6790;49.520;8.504;2022-10-31T11:02:52;17.80;99.90
13436;DHT22;6790;49.520;8.504;2022-10-31T11:05:50;17.80;99.90
13436;DHT22;6790;49.520;8.504;2022-10-31T11:08:36;17.80;99.90
13436;DHT22;6790;49.520;8.504;2022-10-31T11:11:04;17.80;99.90
13436;DHT22;6790;49.520;8.504;2022-10-31T11:13:36;17.70;99.90
13436;DHT22;6790;49.520;8.504;2022-10-31T11:16:15;17.70;99.90
13436;DHT22;6790;49.520;8.504;2022-10-31T11:18:53;17.80;99.90
13436;DHT22;6790;49.520;8.504;2022-10-31T11:21:30;17.80;99.90
13436;DHT22;6790;49.520;8.504;2022-10-31T11:26:40;17.90;99.90
13436;DHT22;6790;49.520;8.504;2022-10-31T11:31:45;18.10;99.90
13436;DHT22;6790;49.520;8.504;2022-10-31T11:34:25;18.10;99.90
13436;DHT22;6790;49.520;8.504;2022-10-31T11:36:53;18.20;99.90
13436;DHT22;6790;49.520;8.504;2022-10-31T11:39:24;18.20;99.90
13436;DHT22;6790;49.520;8.504;2022-10-31T11:41:51;18.20;99.90
13436;DHT22;6790;49.520;8.504;2022-10-31T11:44:20;18.30;99.90
13436;DHT22;6790;49.520;8.504;2022-10-31T11:46:54;18.40;99.90
13436;DHT22;6790;49.520;8.504;2022-10-31T11:49:41;18.30;99.90
13436;DHT22;6790;49.520;8.504;2022-10-31T11:52:18;18.30;99.90
13436;DHT22;6790;49.520;8.504;2022-10-31T11:54:59;18.30;99.90
13436;DHT22;6790;49.520;8.504;2022-10-31T11:57:28;18.40;99.90
13436;DHT22;6790;49.520;8.504;2022-10-31T12:00:00;18.40;99.90
13436;DHT22;6790;49.520;8.504;2022-10-31T12:02:31;18.40;99.90
13436;DHT22;6790;49.520;8.504;2022-10-31T12:05:24;18.40;99.90
13436;DHT22;6790;49.520;8.504;2022-10-31T12:07:54;18.40;99.90
13436;DHT22;6790;49.520;8.504;2022-10-31T12:10:21;18.50;99.90
13436;DHT22;6790;49.520;8.504;2022-10-31T12:18:57;18.40;99.90
13436;DHT22;6790;49.520;8.504;2022-10-31T12:30:15;18.40;99.90
13436;DHT22;6790;49.520;8.504;2022-10-31T12:33:17;18.40;99.90
13436;DHT22;6790;49.520;8.504;2022-10-31T12:36:37;18.40;99.90
13436;DHT22;6790;49.520;8.504;2022-10-31T12:43:08;18.30;99.90
13436;DHT22;6790;49.520;8.504;2022-10-31T12:45:57;18.40;99.90
13436;DHT22;6790;49.520;8.504;2022-10-31T12:57:29;18.30;99.90
13436;DHT22;6790;49.520;8.504;2022-10-31T13:00:20;18.20;99.90
13436;DHT22;6790;49.520;8.504;2022-10-31T13:03:03;18.20;99.90
13436;DHT22;6790;49.520;8.504;2022-10-31T13:05:44;18.20;99.90
13436;DHT22;6790;49.520;8.504;2022-10-31T13:13:45;18.20;99.90
13436;DHT22;6790;49.520;8.504;2022-10-31T13:16:20;18.10;99.90
13436;DHT22;6790;49.520;8.504;2022-10-31T13:19:02;18.20;99.90
13436;DHT22;6790;49.520;8.504;2022-10-31T13:21:41;18.10;99.90
13436;DHT22;6790;49.520;8.504;2022-10-31T13:24:19;18.10;99.90
13436;DHT22;6790;49.520;8.504;2022-10-31T13:26:54;18.10;99.90
13436;DHT22;6790;49.520;8.504;2022-10-31T13:29:33;18.10;99.90
13436;DHT22;6790;49.520;8.504;2022-10-31T13:32:05;18.10;99.90
13436;DHT22;6790;49.520;8.504;2022-10-31T13:34:33;18.10;99.90
13436;DHT22;6790;49.520;8.504;2022-10-31T13:37:55;18.00;99.90
13436;DHT22;6790;49.520;8.504;2022-10-31T13:40:09;18.00;99.90
13436;DHT22;6790;49.520;8.504;2022-10-31T13:45:28;18.00;99.90
13436;DHT22;6790;49.520;8.504;2022-10-31T13:50:40;18.30;99.90
13436;DHT22;6790;49.520;8.504;2022-10-31T13:55:50;18.70;99.90
13436;DHT22;6790;49.520;8.504;2022-10-31T13:58:29;18.90;99.90
13436;DHT22;6790;49.520;8.504;2022-10-31T14:01:12;19.00;99.90
13436;DHT22;6790;49.520;8.504;2022-10-31T14:03:43;18.90;99.90
13436;DHT22;6790;49.520;8.504;2022-10-31T14:06:12;18.90;99.90
13436;DHT22;6790;49.520;8.504;2022-10-31T14:08:43;18.70;99.90
13436;DHT22;6790;49.520;8.504;2022-10-31T14:11:25;18.70;99.90
13436;DHT22;6790;49.520;8.504;2022-10-31T14:13:53;18.50;99.90
13436;DHT22;6790;49.520;8.504;2022-10-31T14:16:27;18.50;99.90
13436;DHT22;6790;49.520;8.504;2022-10-31T14:19:05;18.60;99.90
13436;DHT22;6790;49.520;8.504;2022-10-31T14:21:42;18.60;99.90
13436;DHT22;6790;49.520;8.504;2022-10-31T14:26:54;18.80;99.90
13436;DHT22;6790;49.520;8.504;2022-10-31T14:31:55;18.70;99.90
13436;DHT22;6790;49.520;8.504;2022-10-31T14:34:40;18.50;99.90
13436;DHT22;6790;49.520;8.504;2022-10-31T14:39:49;18.20;99.90
13436;DHT22;6790;49.520;8.504;2022-10-31T14:45:25;17.80;99.90
13436;DHT22;6790;49.520;8.504;2022-10-31T14:48:37;17.70;99.90
13436;DHT22;6790;49.520;8.504;2022-10-31T14:51:14;17.60;99.90
13436;DHT22;6790;49.520;8.504;2022-10-31T14:53:54;17.50;99.90
13436;DHT22;6790;49.520;8.504;2022-10-31T14:56:27;17.40;99.90
13436;DHT22;6790;49.520;8.504;2022-10-31T14:58:57;17.30;99.90
13436;DHT22;6790;49.520;8.504;2022-10-31T15:01:27;17.20;99.90
13436;DHT22;6790;49.520;8.504;2022-10-31T15:04:00;17.10;99.90
13436;DHT22;6790;49.520;8.504;2022-10-31T15:06:35;17.10;99.90
13436;DHT22;6790;49.520;8.504;2022-10-31T15:09:35;17.00;99.90
13436;DHT22;6790;49.520;8.504;2022-10-31T15:14:51;16.90;99.90
13436;DHT22;6790;49.520;8.504;2022-10-31T15:17:18;17.00;99.90
13436;DHT22;6790;49.520;8.504;2022-10-31T15:19:45;16.90;99.90
13436;DHT22;6790;49.520;8.504;2022-10-31T15:22:16;16.90;99.90
13436;DHT22;6790;49.520;8.504;2022-10-31T15:24:42;16.90;99.90
13436;DHT22;6790;49.520;8.504;2022-10-31T15:27:16;17.00;99.90
13436;DHT22;6790;49.520;8.504;2022-10-31T15:29:54;16.90;99.90
13436;DHT22;6790;49.520;8.504;2022-10-31T15:32:25;16.80;99.90
13436;DHT22;6790;49.520;8.504;2022-10-31T15:34:54;16.80;99.90
13436;DHT22;6790;49.520;8.504;2022-10-31T15:37:25;16.70;99.90
13436;DHT22;6790;49.520;8.504;2022-10-31T15:39:51;16.70;99.90
13436;DHT22;6790;49.520;8.504;2022-10-31T15:42:21;16.60;99.90
13436;DHT22;6790;49.520;8.504;2022-10-31T15:45:00;16.60;99.90
13436;DHT22;6790;49.520;8.504;2022-10-31T15:47:31;16.50;99.90
13436;DHT22;6790;49.520;8.504;2022-10-31T15:49:59;16.50;99.90
13436;DHT22;6790;49.520;8.504;2022-10-31T15:57:39;16.50;99.90
13436;DHT22;6790;49.520;8.504;2022-10-31T16:02:50;16.40;99.90
13436;DHT22;6790;49.520;8.504;2022-10-31T16:05:18;16.40;99.90
13436;DHT22;6790;49.520;8.504;2022-10-31T16:07:51;16.40;99.90
13436;DHT22;6790;49.520;8.504;2022-10-31T16:10:23;16.40;99.90
13436;DHT22;6790;49.520;8.504;2022-10-31T16:12:51;16.30;99.90
13436;DHT22;6790;49.520;8.504;2022-10-31T16:15:19;16.20;99.90
13436;DHT22;6790;49.520;8.504;2022-10-31T16:17:48;16.10;99.90
13436;DHT22;6790;49.520;8.504;2022-10-31T16:20:20;16.10;99.90
13436;DHT22;6790;49.520;8.504;2022-10-31T16:22:49;16.00;99.90
13436;DHT22;6790;49.520;8.504;2022-10-31T16:25:26;16.00;99.90
13436;DHT22;6790;49.520;8.504;2022-10-31T16:27:58;16.00;99.90
13436;DHT22;6790;49.520;8.504;2022-10-31T16:30:40;16.00;99.90
13436;DHT22;6790;49.520;8.504;2022-10-31T16:33:45;15.90;99.90
13436;DHT22;6790;49.520;8.504;2022-10-31T16:36:32;15.80;99.90
13436;DHT22;6790;49.520;8.504;2022-10-31T16:39:00;15.80;99.90
13436;DHT22;6790;49.520;8.504;2022-10-31T16:41:26;15.80;99.90
13436;DHT22;6790;49.520;8.504;2022-10-31T16:43:53;15.80;99.90
13436;DHT22;6790;49.520;8.504;2022-10-31T16:46:26;15.70;99.90
13436;DHT22;6790;49.520;8.504;2022-10-31T16:48:55;15.70;99.90
13436;DHT22;6790;49.520;8.504;2022-10-31T16:51:22;15.70;99.90
13436;DHT22;6790;49.520;8.504;2022-10-31T16:53:51;15.80;99.90
13436;DHT22;6790;49.520;8.504;2022-10-31T16:56:23;15.80;99.90
13436;DHT22;6790;49.520;8.504;2022-10-31T16:58:53;15.80;99.90
13436;DHT22;6790;49.520;8.504;2022-10-31T17:01:18;15.80;99.90
13436;DHT22;6790;49.520;8.504;2022-10-31T17:03:44;15.70;99.90
13436;DHT22;6790;49.520;8.504;2022-10-31T17:06:13;15.70;99.90
13436;DHT22;6790;49.520;8.504;2022-10-31T17:08:40;15.60;99.90
13436;DHT22;6790;49.520;8.504;2022-10-31T17:11:07;15.60;99.90
13436;DHT22;6790;49.520;8.504;2022-10-31T17:13:37;15.60;99.90
13436;DHT22;6790;49.520;8.504;2022-10-31T17:16:03;15.50;99.90
13436;DHT22;6790;49.520;8.504;2022-10-31T17:18:29;15.50;99.90
13436;DHT22;6790;49.520;8.504;2022-10-31T17:20:56;15.40;99.90
13436;DHT22;6790;49.520;8.504;2022-10-31T17:23:24;15.20;99.90
13436;DHT22;6790;49.520;8.504;2022-10-31T17:25:49;15.10;99.90
13436;DHT22;6790;49.520;8.504;2022-10-31T17:28:15;15.00;99.90
13436;DHT22;6790;49.520;8.504;2022-10-31T17:30:41;15.00;99.90
13436;DHT22;6790;49.520;8.504;2022-10-31T17:33:15;15.00;99.90
13436;DHT22;6790;49.520;8.504;2022-10-31T17:35:44;14.90;99.90
13436;DHT22;6790;49.520;8.504;2022-10-31T17:38:11;14.90;99.90
13436;DHT22;6790;49.520;8.504;2022-10-31T17:40:38;14.80;99.90
13436;DHT22;6790;49.520;8.504;2022-10-31T17:43:04;14.80;99.90
13436;DHT22;6790;49.520;8.504;2022-10-31T17:45:30;14.80;99.90
13436;DHT22;6790;49.520;8.504;2022-10-31T17:47:56;14.60;99.90
13436;DHT22;6790;49.520;8.504;2022-10-31T17:50:23;14.50;99.90
13436;DHT22;6790;49.520;8.504;2022-10-31T17:52:50;14.50;99.90
13436;DHT22;6790;49.520;8.504;2022-10-31T17:55:16;14.40;99.90
13436;DHT22;6790;49.520;8.504;2022-10-31T17:57:43;14.30;99.90
13436;DHT22;6790;49.520;8.504;2022-10-31T18:00:12;14.30;99.90
13436;DHT22;6790;49.520;8.504;2022-10-31T18:02:40;14.30;99.90
13436;DHT22;6790;49.520;8.504;2022-10-31T18:05:06;14.30;99.90
13436;DHT22;6790;49.520;8.504;2022-10-31T18:07:33;14.20;99.90
13436;DHT22;6790;49.520;8.504;2022-10-31T18:09:59;14.20;99.90
13436;DHT22;6790;49.520;8.504;2022-10-31T18:12:25;14.20;99.90
13436;DHT22;6790;49.520;8.504;2022-10-31T18:14:52;14.30;99.90
13436;DHT22;6790;49.520;8.504;2022-10-31T18:17:18;14.30;99.90
13436;DHT22;6790;49.520;8.504;2022-10-31T18:19:44;14.30;99.90
13436;DHT22;6790;49.520;8.504;2022-10-31T18:22:10;14.30;99.90